»·PEaware :: N2141Y KSBA-KBUR

N2141Y :: KSBA-KBUR

FLIGHT INFORMATION

Flight Status: Arrived
Operator: Privately registered:
United States
More flights under this callsign
Pilot: Pierce O. (19576)
Aircraft: CESSNA 172 SKYHAWK
(C172)
More flights by this aircraft type
Origin: KSBA Santa Barbara Mun
United States
Destination: KBUR Bob Hope-Burbank
United States
More flights between these airports :: More routes between these airports
Route: +
File this flight plan on PilotEdge
Remarks: CAT8
Altitude:
(Current/Filed)
4,500ft
Speed:
(Current/Filed)
0kts
Departed: 03-Feb-19 12:53 PM
Arrived: 03-Feb-19 01:55 PM
Distance/Time
Traveled:
74nm/1:02
Distance/Time
To Go:
Arrived

Flight Plot

Page will automatically refresh every two minutes.


Map Options




Map Legend


Flown Route
Filed Route
Departure Airport
Arrival Airport
Navaid (VOR, NDB)
Fix

Horizontal Profiles

Position Reports

Time Latitude Longitude Heading Altitude Ground
Speed
03-Feb-19 12:38 34.422671 -119.835751 267 10ft 0kts
03-Feb-19 12:39 34.422671 -119.835751 267 10ft 0kts
03-Feb-19 12:40 34.422671 -119.835751 267 10ft 0kts
03-Feb-19 12:41 34.422671 -119.835751 267 10ft 0kts
03-Feb-19 12:42 34.422671 -119.835751 267 10ft 0kts
03-Feb-19 12:43 34.422671 -119.835751 267 10ft 0kts
03-Feb-19 12:44 34.424287 -119.837671 327 12ft 13kts
03-Feb-19 12:45 34.426734 -119.836785 88 10ft 11kts
03-Feb-19 12:46 34.427085 -119.834625 354 10ft 0kts
03-Feb-19 12:47 34.427086 -119.834625 353 10ft 0kts
03-Feb-19 12:48 34.427086 -119.834625 353 10ft 0kts
03-Feb-19 12:49 34.427086 -119.834625 353 10ft 0kts
03-Feb-19 12:50 34.427086 -119.834625 353 10ft 0kts
03-Feb-19 12:51 34.427086 -119.834625 353 10ft 0kts
03-Feb-19 12:52 34.427867 -119.836502 267 10ft 47kts
03-Feb-19 12:53 34.428053 -119.859473 270 859ft 72kts
03-Feb-19 12:54 34.429935 -119.884222 278 1563ft 94kts
03-Feb-19 12:55 34.428850 -119.918631 261 1641ft 102kts
03-Feb-19 12:56 34.425123 -119.953376 242 1640ft 101kts
03-Feb-19 12:57 34.410018 -119.933936 102 2243ft 111kts
03-Feb-19 12:58 34.394555 -119.903515 185 2737ft 113kts
03-Feb-19 12:59 34.387076 -119.932874 269 3430ft 101kts
03-Feb-19 13:00 34.366983 -119.939798 115 3887ft 116kts
03-Feb-19 13:02 34.360156 -119.901678 101 4388ft 116kts
03-Feb-19 13:03 34.354049 -119.863324 101 4890ft 115kts
03-Feb-19 13:04 34.348474 -119.825555 99 5390ft 113kts
03-Feb-19 13:05 34.343597 -119.787979 99 5890ft 112kts
03-Feb-19 13:06 34.339304 -119.754482 99 6733ft 90kts
03-Feb-19 13:07 34.335720 -119.725613 99 7394ft 95kts
03-Feb-19 13:08 34.330849 -119.688238 99 7497ft 119kts
03-Feb-19 13:09 34.325846 -119.650186 99 7498ft 111kts
03-Feb-19 13:10 34.320940 -119.612797 99 7499ft 116kts
03-Feb-19 13:11 34.315756 -119.573515 99 7498ft 119kts
03-Feb-19 13:12 34.311952 -119.533644 96 7498ft 119kts
03-Feb-19 13:13 34.308349 -119.493559 96 7498ft 119kts
03-Feb-19 13:14 34.304754 -119.453548 96 7498ft 119kts
03-Feb-19 13:15 34.301138 -119.413339 96 7499ft 121kts
03-Feb-19 13:16 34.297434 -119.372309 96 7499ft 123kts
03-Feb-19 13:16 34.294362 -119.338353 96 7498ft 124kts
03-Feb-19 13:18 34.289982 -119.289801 97 7498ft 124kts
03-Feb-19 13:19 34.286283 -119.248857 96 7498ft 124kts
03-Feb-19 13:20 34.283434 -119.207033 93 7498ft 124kts
03-Feb-19 13:20 34.281758 -119.172304 93 7498ft 124kts
03-Feb-19 13:21 34.279725 -119.130552 93 7498ft 124kts
03-Feb-19 13:23 34.277356 -119.081951 93 7498ft 124kts
03-Feb-19 13:24 34.275351 -119.040690 93 7498ft 122kts
03-Feb-19 13:24 34.273691 -119.006463 93 7498ft 122kts
03-Feb-19 13:25 34.271689 -118.965408 93 7498ft 122kts
03-Feb-19 13:26 34.269686 -118.924450 93 7498ft 122kts
03-Feb-19 13:27 34.267672 -118.883362 93 7498ft 122kts
03-Feb-19 13:28 34.265660 -118.842481 93 7496ft 118kts
03-Feb-19 13:29 34.263804 -118.804266 93 7498ft 111kts
03-Feb-19 13:30 34.261998 -118.766952 93 7498ft 110kts
03-Feb-19 13:31 34.260197 -118.729778 93 7467ft 113kts
03-Feb-19 13:32 34.258199 -118.689432 93 6973ft 121kts
03-Feb-19 13:33 34.255264 -118.647703 100 6305ft 127kts
03-Feb-19 13:34 34.249187 -118.606901 100 5600ft 120kts
03-Feb-19 13:35 34.243298 -118.567350 100 4900ft 119kts
03-Feb-19 13:36 34.237456 -118.528010 100 4201ft 118kts
03-Feb-19 13:37 34.231629 -118.488838 100 3503ft 118kts
03-Feb-19 13:38 34.225031 -118.450098 104 2804ft 114kts
03-Feb-19 13:39 34.213034 -118.419038 157 2094ft 98kts
03-Feb-19 13:40 34.196482 -118.398802 91 1828ft 73kts
03-Feb-19 13:41 34.197946 -118.376973 83 1339ft 68kts
03-Feb-19 13:42 34.197120 -118.354852 99 1123ft 60kts
03-Feb-19 13:43 34.194909 -118.340385 101 1333ft 68kts
03-Feb-19 13:44 34.190846 -118.324074 110 1408ft 74kts
03-Feb-19 13:45 34.172224 -118.305857 204 1426ft 113kts
03-Feb-19 13:46 34.160160 -118.329138 255 1534ft 88kts
03-Feb-19 13:47 34.153542 -118.355985 252 1629ft 84kts
03-Feb-19 13:48 34.146701 -118.383889 255 1634ft 88kts
03-Feb-19 13:49 34.142954 -118.413386 269 1637ft 89kts
03-Feb-19 13:50 34.162964 -118.428369 344 1636ft 94kts
03-Feb-19 13:51 34.182449 -118.413577 48 1541ft 99kts
03-Feb-19 13:52 34.198287 -118.397869 84 1351ft 66kts
03-Feb-19 13:53 34.198016 -118.374009 92 926ft 69kts
03-Feb-19 13:54 34.197844 -118.361061 95 717ft 12kts
03-Feb-19 13:55 34.196843 -118.361802 271 716ft 11kts
03-Feb-19 13:56 34.196896 -118.366051 271 722ft 12kts
03-Feb-19 13:57 34.196241 -118.367222 262 721ft 6kts
03-Feb-19 13:58 34.196387 -118.367577 7 722ft 0kts
03-Feb-19 13:59 34.196387 -118.367577 7 722ft 0kts

Navigation Log

Ident Type
Flight plan parsing failed, navigation log unavailable